Time;durP1;ratioP1;P1;durP2;ratioP2;P2;SDS_P1;SDS_P2;PMS_P1;PMS_P2;Temp;Humidity;BMP_temperature;BMP_pressure;BME280_temperature;BME280_humidity;BME280_pressure;Samples;Min_cycle;Max_cycle;Signal;HPM_P1;HPM_P2
2022/09/09 00:00:35;;;;;;;16.15;6.75;;;26.90;50.80;;;;;;5017157;28;20103;-69
2022/09/09 00:03:14;;;;;;;11.85;6.35;;;26.90;50.90;;;;;;5028710;28;20378;-69
2022/09/09 00:06:07;;;;;;;16.60;6.53;;;26.90;50.90;;;;;;5012045;28;20113;-69
2022/09/09 00:08:59;;;;;;;13.43;6.32;;;26.80;51.00;;;;;;5012086;28;20045;-69
2022/09/09 00:11:31;;;;;;;15.18;6.50;;;26.90;51.10;;;;;;5009376;28;20061;-69
2022/09/09 00:14:04;;;;;;;13.13;6.45;;;26.80;51.10;;;;;;5012259;28;20479;-69
2022/09/09 00:16:36;;;;;;;10.35;6.07;;;26.90;51.10;;;;;;5010673;28;20038;-70
2022/09/09 00:19:07;;;;;;;12.20;6.10;;;26.80;51.10;;;;;;5011857;28;20549;-69
2022/09/09 00:21:37;;;;;;;9.90;6.07;;;26.80;51.10;;;;;;5009321;28;20049;-68
2022/09/09 00:24:15;;;;;;;15.50;5.72;;;26.80;51.20;;;;;;5011967;28;20164;-69
2022/09/09 00:26:45;;;;;;;12.57;6.30;;;26.80;51.30;;;;;;5011681;28;20467;-69
2022/09/09 00:29:29;;;;;;;12.80;5.82;;;26.80;51.30;;;;;;5010492;28;20097;-69
2022/09/09 00:32:04;;;;;;;8.43;5.13;;;26.70;51.30;;;;;;5010523;28;20523;-69
2022/09/09 00:34:31;;;;;;;10.50;6.15;;;26.80;51.30;;;;;;5011677;28;20151;-69
2022/09/09 00:36:58;;;;;;;8.38;5.90;;;26.90;51.20;;;;;;5011776;28;20048;-69
2022/09/09 00:39:39;;;;;;;17.25;6.25;;;26.80;51.20;;;;;;5010310;28;20169;-69
2022/09/09 00:42:33;;;;;;;9.40;5.28;;;26.80;51.20;;;;;;4977964;28;20468;-69
2022/09/09 00:45:27;;;;;;;7.38;5.18;;;26.90;51.20;;;;;;5011440;28;20140;-69
2022/09/09 00:47:53;;;;;;;10.90;5.47;;;26.80;51.20;;;;;;5011501;28;20038;-69
2022/09/09 00:50:55;;;;;;;14.35;6.63;;;26.90;51.20;;;;;;4992457;28;20065;-69
2022/09/09 00:53:58;;;;;;;8.43;5.63;;;26.80;51.30;;;;;;4992541;28;20038;-69
2022/09/09 00:56:35;;;;;;;7.55;5.22;;;26.90;51.20;;;;;;5008120;28;20022;-69
2022/09/09 00:59:28;;;;;;;7.82;5.15;;;26.90;51.40;;;;;;4991429;28;20057;-69
2022/09/09 01:01:55;;;;;;;9.00;5.10;;;26.90;51.40;;;;;;5007150;28;20065;-68
2022/09/09 01:04:28;;;;;;;10.88;5.70;;;26.90;51.40;;;;;;5008216;28;20149;-69
2022/09/09 01:07:03;;;;;;;13.52;5.43;;;26.80;51.40;;;;;;4976152;28;20551;-69
2022/09/09 01:09:45;;;;;;;6.85;5.32;;;26.80;51.40;;;;;;4992616;28;20145;-69
2022/09/09 01:12:25;;;;;;;10.65;5.22;;;26.80;51.50;;;;;;4992131;28;20590;-69
2022/09/09 01:15:16;;;;;;;8.05;5.35;;;26.80;51.50;;;;;;4991426;28;20057;-69
2022/09/09 01:17:57;;;;;;;;;;;26.70;51.60;;;;;;4992160;28;20085;-69
2022/09/09 01:20:30;;;;;;;8.73;5.15;;;26.70;51.60;;;;;;5008384;28;19948;-69
2022/09/09 01:23:34;;;;;;;9.55;5.22;;;26.60;51.60;;;;;;5008687;28;20095;-69
2022/09/09 01:26:33;;;;;;;9.93;4.97;;;26.70;51.70;;;;;;5009725;28;20034;-69
2022/09/09 01:29:08;;;;;;;8.43;6.30;;;26.60;51.70;;;;;;5011068;28;20034;-69
2022/09/09 01:31:56;;;;;;;10.35;5.38;;;26.70;51.70;;;;;;5010679;28;20046;-69
2022/09/09 01:34:25;;;;;;;8.27;5.25;;;26.70;51.80;;;;;;5010298;28;20038;-69
2022/09/09 01:37:07;;;;;;;8.13;5.43;;;26.50;51.90;;;;;;5008983;28;20022;-68
2022/09/09 01:39:38;;;;;;;9.57;5.53;;;26.70;51.90;;;;;;5009120;28;20067;-69
2022/09/09 01:42:11;;;;;;;9.27;5.68;;;26.70;51.80;;;;;;5008878;28;20478;-69
2022/09/09 01:44:38;;;;;;;8.30;5.32;;;26.60;51.70;;;;;;5011592;28;20127;-69
2022/09/09 01:47:06;;;;;;;8.18;4.55;;;26.70;51.70;;;;;;5013116;28;20041;-69
2022/09/09 01:49:32;;;;;;;9.35;5.47;;;26.70;51.70;;;;;;5012097;28;20065;-69
2022/09/09 01:52:04;;;;;;;10.77;5.35;;;26.80;51.70;;;;;;5013153;28;20136;-69
2022/09/09 01:54:35;;;;;;;9.60;4.90;;;26.70;51.70;;;;;;5013269;28;20041;-69
2022/09/09 01:57:17;;;;;;;7.07;4.47;;;26.60;51.70;;;;;;5013241;28;20137;-71
2022/09/09 01:59:52;;;;;;;8.07;4.65;;;26.70;51.80;;;;;;5012364;28;20299;-67
2022/09/09 02:02:26;;;;;;;7.88;4.80;;;26.80;51.80;;;;;;5013124;28;20037;-69
2022/09/09 02:05:27;;;;;;;8.55;5.25;;;26.60;51.80;;;;;;5012983;28;20041;-69
2022/09/09 02:08:05;;;;;;;7.38;5.18;;;26.70;51.80;;;;;;5012947;28;20072;-69
2022/09/09 02:10:56;;;;;;;8.20;5.18;;;26.70;51.90;;;;;;5012921;28;20107;-69
2022/09/09 02:13:39;;;;;;;12.32;4.65;;;26.60;51.80;;;;;;5012848;28;20034;-69
2022/09/09 02:16:31;;;;;;;11.15;4.75;;;26.60;51.90;;;;;;5012710;28;20034;-69
2022/09/09 02:19:21;;;;;;;6.57;5.45;;;26.70;51.90;;;;;;5013990;28;20044;-69
2022/09/09 02:22:19;;;;;;;12.93;4.88;;;26.70;51.90;;;;;;4991691;28;20094;-69
2022/09/09 02:24:47;;;;;;;9.88;4.88;;;26.70;52.00;;;;;;4992000;28;20061;-69
2022/09/09 02:27:23;;;;;;;11.27;4.47;;;26.60;52.00;;;;;;4991844;28;20049;-69
2022/09/09 02:29:51;;;;;;;11.43;5.40;;;26.60;51.90;;;;;;4975565;28;20038;-69
2022/09/09 02:32:23;;;;;;;6.13;4.32;;;26.70;51.80;;;;;;4942919;28;20062;-69
2022/09/09 02:35:08;;;;;;;7.03;4.05;;;26.60;51.80;;;;;;4975562;28;20030;-69
2022/09/09 02:37:38;;;;;;;7.25;3.92;;;26.50;51.70;;;;;;4975200;28;20077;-69
2022/09/09 02:40:07;;;;;;;6.85;3.78;;;26.50;51.80;;;;;;4988407;28;20524;-69
2022/09/09 02:42:45;;;;;;;4.53;4.07;;;26.70;51.70;;;;;;4974912;28;20440;-68
2022/09/09 02:45:15;;;;;;;7.43;3.90;;;26.60;51.70;;;;;;4975340;28;20047;-69
2022/09/09 02:48:08;;;;;;;4.57;4.00;;;26.60;51.60;;;;;;4991124;28;20190;-69
2022/09/09 02:50:55;;;;;;;5.65;4.50;;;26.70;51.60;;;;;;4991245;28;20057;-69
2022/09/09 02:53:38;;;;;;;7.07;4.45;;;26.70;51.70;;;;;;4975306;28;20050;-69
2022/09/09 02:56:09;;;;;;;6.18;4.38;;;26.50;51.80;;;;;;4985039;28;20090;-69
2022/09/09 02:58:39;;;;;;;5.63;4.03;;;26.50;51.90;;;;;;4994376;28;20111;-69
2022/09/09 03:01:06;;;;;;;10.20;4.60;;;26.50;52.00;;;;;;4974600;28;20027;-69
2022/09/09 03:03:32;;;;;;;5.93;4.25;;;26.60;52.00;;;;;;4974753;28;20061;-69
2022/09/09 03:06:01;;;;;;;5.43;4.22;;;26.50;52.00;;;;;;4974870;28;20034;-69
2022/09/09 03:08:28;;;;;;;10.13;4.28;;;26.60;52.00;;;;;;4974691;28;20443;-69
2022/09/09 03:10:58;;;;;;;10.85;5.18;;;26.60;52.10;;;;;;4974574;28;20563;-69
2022/09/09 03:13:26;;;;;;;7.97;4.82;;;26.60;52.10;;;;;;4980867;28;20044;-70
2022/09/09 03:15:52;;;;;;;8.82;5.25;;;26.60;52.00;;;;;;4992363;28;20040;-69
2022/09/09 03:18:20;;;;;;;7.05;5.10;;;26.60;52.00;;;;;;4992098;28;20026;-69
2022/09/09 03:20:50;;;;;;;8.52;4.53;;;26.60;52.00;;;;;;4991943;28;20348;-69
2022/09/09 03:23:17;;;;;;;7.38;4.22;;;26.60;52.10;;;;;;4992182;28;20058;-69
2022/09/09 03:25:52;;;;;;;10.02;4.35;;;26.50;52.00;;;;;;4991949;28;20480;-69
2022/09/09 03:28:30;;;;;;;7.43;4.82;;;26.70;52.00;;;;;;4992022;28;20038;-69
2022/09/09 03:31:05;;;;;;;9.60;4.45;;;26.60;52.10;;;;;;4991764;28;20084;-70
2022/09/09 03:33:37;;;;;;;14.20;4.60;;;26.70;51.80;;;;;;4974651;28;20046;-69
2022/09/09 03:36:04;;;;;;;6.35;4.75;;;26.70;51.60;;;;;;4992113;28;20121;-68
2022/09/09 03:38:31;;;;;;;5.72;3.92;;;26.70;51.50;;;;;;4991741;28;20038;-69
2022/09/09 03:41:00;;;;;;;10.18;4.68;;;26.70;51.40;;;;;;4975579;28;20537;-68
2022/09/09 03:43:28;;;;;;;12.00;4.57;;;26.70;51.30;;;;;;4991457;28;20042;-70
2022/09/09 03:45:57;;;;;;;6.88;4.50;;;26.70;51.40;;;;;;4992763;28;20041;-68
2022/09/09 03:48:25;;;;;;;5.55;4.20;;;26.70;52.00;;;;;;4990982;28;20041;-69
2022/09/09 03:50:54;;;;;;;10.90;4.82;;;26.60;52.00;;;;;;4975147;28;20403;-70
2022/09/09 03:53:22;;;;;;;6.88;3.85;;;26.60;51.80;;;;;;4991454;28;20038;-71
2022/09/09 03:55:54;;;;;;;7.80;3.88;;;26.70;51.70;;;;;;5010565;28;20026;-69
2022/09/09 03:58:24;;;;;;;5.72;3.47;;;26.70;51.50;;;;;;4994155;28;20367;-69
2022/09/09 04:00:58;;;;;;;6.28;3.65;;;26.70;51.40;;;;;;5010224;28;20214;-70
2022/09/09 04:03:26;;;;;;;6.13;3.88;;;26.80;51.30;;;;;;5011405;28;20502;-72
2022/09/09 04:05:53;;;;;;;7.85;4.28;;;26.80;52.80;;;;;;5012038;28;20120;-76
2022/09/09 04:08:20;;;;;;;7.18;4.00;;;26.90;54.60;;;;;;5010403;28;20029;-75
2022/09/09 04:10:49;;;;;;;6.55;4.07;;;27.10;57.20;;;;;;5010577;28;20042;-75
2022/09/09 04:13:17;;;;;;;5.60;4.10;;;27.30;56.90;;;;;;5010838;28;20045;-73
2022/09/09 04:15:59;;;;;;;7.25;4.10;;;27.20;56.70;;;;;;5010687;28;20049;-70
2022/09/09 04:18:27;;;;;;;6.57;4.30;;;27.20;53.00;;;;;;5010426;28;20034;-73
2022/09/09 04:20:57;;;;;;;5.07;3.78;;;27.10;51.80;;;;;;5010338;28;20038;-73
2022/09/09 04:23:28;;;;;;;8.65;5.70;;;27.10;51.90;;;;;;4994442;28;20037;-74
2022/09/09 04:25:57;;;;;;;10.57;4.22;;;27.10;51.90;;;;;;5011655;28;20112;-73
2022/09/09 04:28:25;;;;;;;6.97;3.90;;;27.10;51.60;;;;;;5011710;28;20030;-72
2022/09/09 04:30:52;;;;;;;7.25;3.85;;;27.10;51.30;;;;;;5010446;28;20042;-73
2022/09/09 04:33:19;;;;;;;8.40;3.85;;;27.10;51.10;;;;;;5009287;28;20034;-73
2022/09/09 04:35:50;;;;;;;7.18;3.90;;;27.30;51.00;;;;;;5010274;28;20091;-72
2022/09/09 04:38:18;;;;;;;6.75;3.85;;;27.10;50.80;;;;;;5010307;28;20042;-71
2022/09/09 04:40:48;;;;;;;5.18;4.53;;;27.00;50.70;;;;;;5009162;28;20097;-72
2022/09/09 04:43:15;;;;;;;5.30;3.65;;;27.00;50.60;;;;;;5010010;28;20048;-71
2022/09/09 04:45:46;;;;;;;4.68;3.88;;;27.20;50.70;;;;;;5008768;28;20075;-71
2022/09/09 04:48:12;;;;;;;5.55;4.22;;;27.00;50.50;;;;;;5010333;28;20088;-71
2022/09/09 04:50:40;;;;;;;9.15;4.30;;;27.10;50.40;;;;;;5009878;28;20380;-71
2022/09/09 04:53:07;;;;;;;5.47;4.05;;;27.10;50.30;;;;;;5008496;28;20105;-69
2022/09/09 04:55:36;;;;;;;2.65;1.90;;;27.00;50.10;;;;;;5009838;28;20030;-71
2022/09/09 04:58:06;;;;;;;1.85;1.75;;;27.10;50.40;;;;;;5010138;28;20038;-71
2022/09/09 05:00:34;;;;;;;4.88;3.13;;;27.20;49.70;;;;;;5010838;28;20054;-71
2022/09/09 05:03:06;;;;;;;2.25;2.05;;;27.10;49.50;;;;;;5009319;28;20037;-71
2022/09/09 05:05:36;;;;;;;2.92;1.40;;;27.20;49.30;;;;;;5008068;28;20065;-72
2022/09/09 05:08:07;;;;;;;5.70;2.60;;;27.20;51.40;;;;;;5005710;28;20503;-72
2022/09/09 05:10:34;;;;;;;10.93;2.67;;;27.20;51.90;;;;;;4991957;28;20045;-70
2022/09/09 05:13:00;;;;;;;3.28;2.90;;;27.20;51.40;;;;;;5008547;28;20044;-71
2022/09/09 05:15:29;;;;;;;3.35;2.78;;;27.20;53.30;;;;;;5008402;28;20088;-72
2022/09/09 05:18:00;;;;;;;3.92;2.95;;;27.20;54.90;;;;;;5008451;28;20037;-71
2022/09/09 05:20:28;;;;;;;4.22;2.60;;;27.30;53.90;;;;;;5011162;28;20132;-72
2022/09/09 05:22:56;;;;;;;3.88;3.30;;;27.30;52.00;;;;;;4995649;28;20046;-71
2022/09/09 05:25:26;;;;;;;5.03;3.15;;;27.30;55.70;;;;;;5004409;28;20045;-71
2022/09/09 05:27:54;;;;;;;2.63;2.42;;;27.30;54.60;;;;;;5001184;28;20045;-72
2022/09/09 05:30:23;;;;;;;4.47;2.67;;;27.30;54.00;;;;;;5000421;28;20043;-71
2022/09/09 05:32:50;;;;;;;4.82;3.83;;;27.40;52.60;;;;;;4984137;28;20038;-73
2022/09/09 05:35:18;;;;;;;8.68;4.53;;;27.30;53.30;;;;;;5011603;28;20042;-72
2022/09/09 05:37:45;;;;;;;4.43;3.63;;;27.40;57.00;;;;;;4994715;28;20169;-69
2022/09/09 05:40:12;;;;;;;5.75;3.58;;;27.50;53.80;;;;;;4994843;28;20045;-72
2022/09/09 05:42:39;;;;;;;9.95;4.60;;;27.60;52.50;;;;;;4989552;28;20190;-70
2022/09/09 05:45:07;;;;;;;7.22;3.97;;;27.40;51.90;;;;;;5008455;28;20041;-68
2022/09/09 05:47:35;;;;;;;7.72;4.55;;;27.50;51.60;;;;;;5008343;28;20068;-69
2022/09/09 05:50:01;;;;;;;3.83;3.45;;;27.60;51.30;;;;;;5000699;28;20030;-68
2022/09/09 05:52:28;;;;;;;4.15;3.53;;;27.40;51.20;;;;;;5005409;28;20127;-71
2022/09/09 05:54:56;;;;;;;6.50;3.97;;;27.40;51.10;;;;;;4991839;28;20519;-71
2022/09/09 05:57:23;;;;;;;7.55;3.60;;;27.40;51.10;;;;;;5008665;28;20073;-71
2022/09/09 05:59:50;;;;;;;5.72;3.83;;;27.50;51.10;;;;;;4994050;28;20057;-71
2022/09/09 06:02:16;;;;;;;4.53;3.45;;;27.60;51.10;;;;;;4994127;28;20399;-70
2022/09/09 06:04:42;;;;;;;3.95;3.05;;;27.50;51.10;;;;;;5009544;28;20042;-69
2022/09/09 06:07:08;;;;;;;6.72;3.65;;;27.50;50.60;;;;;;5011644;28;20034;-69
2022/09/09 06:09:35;;;;;;;5.95;4.20;;;27.60;50.90;;;;;;4992270;28;20046;-71
2022/09/09 06:12:01;;;;;;;4.63;3.70;;;27.60;50.90;;;;;;5009835;28;20471;-69
2022/09/09 06:14:30;;;;;;;6.32;4.13;;;27.50;50.90;;;;;;5010264;28;20044;-70
2022/09/09 06:16:58;;;;;;;8.02;4.20;;;27.60;50.90;;;;;;5010302;28;20526;-69
2022/09/09 06:19:30;;;;;;;5.20;3.95;;;27.70;51.10;;;;;;5009987;28;20467;-70
2022/09/09 06:21:58;;;;;;;6.40;4.00;;;27.60;51.10;;;;;;5009526;28;20029;-68
2022/09/09 06:24:24;;;;;;;7.47;3.28;;;27.70;51.20;;;;;;4994040;28;20666;-68
2022/09/09 06:26:50;;;;;;;8.60;4.05;;;27.70;51.20;;;;;;5011233;28;20049;-69
2022/09/09 06:29:21;;;;;;;6.15;3.75;;;27.70;50.00;;;;;;5009478;28;20061;-65
2022/09/09 06:31:47;;;;;;;6.22;4.10;;;27.50;51.20;;;;;;5009665;28;20499;-67
2022/09/09 06:34:18;;;;;;;6.95;4.10;;;27.50;51.00;;;;;;5009697;28;20045;-68
2022/09/09 06:36:49;;;;;;;8.93;3.50;;;27.60;51.20;;;;;;5011627;28;20157;-67
2022/09/09 06:39:35;;;;;;;9.07;4.20;;;27.50;51.90;;;;;;5008581;28;20046;-66
2022/09/09 06:42:01;;;;;;;5.60;3.25;;;27.60;51.50;;;;;;5008647;28;20050;-67
2022/09/09 06:45:03;;;;;;;11.38;3.88;;;27.60;51.60;;;;;;4952628;29;20038;-69
2022/09/09 06:47:47;;;;;;;3.35;3.05;;;27.50;51.60;;;;;;4932910;29;20437;-68
2022/09/09 06:50:14;;;;;;;7.00;3.28;;;27.40;51.70;;;;;;4934177;29;20051;-70
2022/09/09 06:52:40;;;;;;;4.97;3.25;;;27.50;51.80;;;;;;4934392;29;20055;-69
2022/09/09 06:55:09;;;;;;;6.57;3.25;;;27.50;51.70;;;;;;4944950;28;20130;-69
2022/09/09 06:57:35;;;;;;;13.23;3.60;;;27.40;51.60;;;;;;4936541;29;20533;-71
2022/09/09 07:00:03;;;;;;;5.00;3.40;;;27.60;51.40;;;;;;4951752;29;20117;-70
2022/09/09 07:02:31;;;;;;;9.48;3.42;;;27.70;51.00;;;;;;4922617;29;20047;-68
2022/09/09 07:04:58;;;;;;;6.60;3.47;;;27.50;50.90;;;;;;4917036;29;20090;-69
2022/09/09 07:07:24;;;;;;;5.03;3.00;;;27.50;51.00;;;;;;4910956;29;20123;-68
2022/09/09 07:09:51;;;;;;;8.75;3.80;;;27.60;51.00;;;;;;4912439;29;20050;-68
2022/09/09 07:12:18;;;;;;;5.25;3.28;;;27.60;51.10;;;;;;4931629;29;20047;-69
2022/09/09 07:14:52;;;;;;;5.40;3.38;;;27.50;50.90;;;;;;4917287;29;20040;-72
2022/09/09 07:17:18;;;;;;;6.28;3.47;;;27.70;51.00;;;;;;4917458;29;20363;-69
2022/09/09 07:19:44;;;;;;;7.72;3.20;;;27.60;51.10;;;;;;4993487;28;20084;-69
2022/09/09 07:22:10;;;;;;;6.05;3.30;;;27.50;51.10;;;;;;4993422;28;20066;-71
2022/09/09 07:24:37;;;;;;;5.38;2.92;;;27.50;50.90;;;;;;5025285;28;20042;-70
2022/09/09 07:27:03;;;;;;;5.25;3.17;;;27.50;51.20;;;;;;5009763;28;20028;-73
2022/09/09 07:29:29;;;;;;;7.30;3.20;;;27.70;51.10;;;;;;5011233;28;20034;-70
2022/09/09 07:31:56;;;;;;;3.88;2.65;;;27.50;51.40;;;;;;5011546;28;20435;-71
2022/09/09 07:34:28;;;;;;;4.30;3.17;;;27.60;51.90;;;;;;5012496;28;20417;-71
2022/09/09 07:36:57;;;;;;;4.38;3.10;;;27.60;51.90;;;;;;5012190;28;20057;-70
2022/09/09 07:39:23;;;;;;;6.45;2.92;;;27.60;51.90;;;;;;5011737;28;20052;-71
2022/09/09 07:41:54;;;;;;;5.28;3.53;;;27.50;51.90;;;;;;5011292;28;20065;-69
2022/09/09 07:44:27;;;;;;;5.70;3.45;;;27.60;51.70;;;;;;4994255;28;20434;-71
2022/09/09 07:46:59;;;;;;;5.55;3.45;;;27.50;51.50;;;;;;5011835;28;20542;-74
2022/09/09 07:49:32;;;;;;;3.65;3.35;;;27.40;51.50;;;;;;5011728;28;20042;-76
2022/09/09 07:51:59;;;;;;;5.68;3.33;;;27.50;51.40;;;;;;5011386;28;20129;-72
2022/09/09 07:54:25;;;;;;;6.78;4.00;;;27.50;51.30;;;;;;5011119;28;20044;-71
2022/09/09 07:56:52;;;;;;;5.32;3.47;;;27.40;50.00;;;;;;5011120;28;20132;-70
2022/09/09 07:59:21;;;;;;;4.13;3.47;;;27.30;51.10;;;;;;5010453;28;20147;-71
2022/09/09 08:01:54;;;;;;;6.90;4.13;;;27.50;51.40;;;;;;5010786;28;20034;-71
2022/09/09 08:04:25;;;;;;;14.93;3.85;;;27.50;51.40;;;;;;5009046;28;20057;-73
2022/09/09 08:06:54;;;;;;;9.13;3.35;;;27.40;51.20;;;;;;4993248;28;20112;-75
2022/09/09 08:09:28;;;;;;;7.55;3.65;;;27.40;51.00;;;;;;5009875;28;20088;-71
2022/09/09 08:12:01;;;;;;;9.48;4.00;;;27.50;51.00;;;;;;4994866;28;20038;-73
2022/09/09 08:14:29;;;;;;;5.93;3.75;;;27.40;51.00;;;;;;5008566;28;20135;-74
2022/09/09 08:16:57;;;;;;;8.95;3.88;;;27.40;51.30;;;;;;5008578;28;20117;-76
2022/09/09 08:19:26;;;;;;;8.77;3.40;;;27.50;49.70;;;;;;4992393;28;20046;-74
2022/09/09 08:21:53;;;;;;;6.15;3.55;;;27.50;50.80;;;;;;5009072;28;20092;-79
2022/09/09 08:24:20;;;;;;;5.32;3.35;;;27.40;50.80;;;;;;5008383;28;20045;-75
2022/09/09 08:26:49;;;;;;;5.22;3.60;;;27.50;51.70;;;;;;5009051;28;20045;-72
2022/09/09 08:29:18;;;;;;;5.05;3.67;;;27.50;51.70;;;;;;4992445;28;20050;-71
2022/09/09 08:31:56;;;;;;;4.65;3.03;;;27.40;51.20;;;;;;4976007;28;20042;-71
2022/09/09 08:34:26;;;;;;;5.25;3.03;;;27.60;52.00;;;;;;4992450;28;20384;-70
2022/09/09 08:36:53;;;;;;;3.25;2.80;;;27.60;51.50;;;;;;5009630;28;20038;-73
2022/09/09 08:39:24;;;;;;;5.15;2.92;;;27.60;52.20;;;;;;5009035;28;20503;-69
2022/09/09 08:42:02;;;;;;;4.85;2.40;;;27.50;52.20;;;;;;4990756;28;20034;-71
2022/09/09 08:45:05;;;;;;;12.20;2.55;;;27.60;53.50;;;;;;5009928;28;20026;-70
2022/09/09 08:47:49;;;;;;;5.25;3.40;;;27.70;53.30;;;;;;4973188;28;20086;-69
2022/09/09 08:50:16;;;;;;;3.95;3.55;;;27.80;52.10;;;;;;4989241;28;20051;-68
2022/09/09 08:53:01;;;;;;;4.18;2.90;;;27.90;49.90;;;;;;4973278;28;20395;-68
2022/09/09 08:55:55;;;;;;;6.50;3.05;;;27.80;51.30;;;;;;4976939;28;20065;-71
2022/09/09 08:59:05;;;;;;;1.88;1.30;;;28.10;51.70;;;;;;4925832;29;20087;-70
2022/09/09 09:02:17;;;;;;;1.10;0.98;;;28.10;51.40;;;;;;4885448;29;20243;-70
2022/09/09 09:05:36;;;;;;;3.00;1.90;;;28.20;51.40;;;;;;4912818;29;20040;-70
2022/09/09 09:08:07;;;;;;;2.03;1.88;;;28.30;50.50;;;;;;4859753;29;20064;-70
2022/09/09 09:10:50;;;;;;;3.90;2.78;;;28.40;52.90;;;;;;4844666;29;20125;-70
2022/09/09 09:13:30;;;;;;;5.03;2.05;;;28.20;53.10;;;;;;4855966;29;20057;-68
2022/09/09 09:16:17;;;;;;;1.00;1.00;;;28.20;53.50;;;;;;4859392;29;20436;-69
2022/09/09 09:18:44;;;;;;;3.05;1.20;;;28.30;52.20;;;;;;4859843;29;20041;-69
2022/09/09 09:21:20;;;;;;;3.45;2.45;;;28.20;52.60;;;;;;4844290;29;20115;-72
2022/09/09 09:23:59;;;;;;;6.28;2.30;;;28.30;51.90;;;;;;4843083;29;20041;-71
2022/09/09 09:26:36;;;;;;;9.75;3.25;;;28.20;52.30;;;;;;4884953;29;20057;-71
2022/09/09 09:29:16;;;;;;;3.50;2.97;;;28.10;53.10;;;;;;4877713;29;20066;-73
2022/09/09 09:31:54;;;;;;;10.02;4.13;;;28.00;49.30;;;;;;4937202;29;20051;-73
2022/09/09 09:34:23;;;;;;;3.10;2.80;;;28.00;52.40;;;;;;4918293;29;20127;-73
2022/09/09 09:37:03;;;;;;;4.80;2.88;;;28.00;51.20;;;;;;4934374;29;20144;-73
2022/09/09 09:39:38;;;;;;;3.53;2.72;;;28.10;51.50;;;;;;4922027;29;20094;-73
2022/09/09 09:42:15;;;;;;;9.60;3.30;;;27.90;50.70;;;;;;4936147;29;20054;-73
2022/09/09 09:44:44;;;;;;;6.82;3.10;;;28.00;51.00;;;;;;4951921;28;20039;-74
2022/09/09 09:47:21;;;;;;;11.27;2.80;;;28.00;52.60;;;;;;4993239;28;20034;-73
2022/09/09 09:49:59;;;;;;;2.22;1.85;;;28.30;52.50;;;;;;4994529;28;20089;-73
2022/09/09 09:52:31;;;;;;;4.68;2.60;;;28.60;59.30;;;;;;4993149;28;20370;-73
2022/09/09 09:55:03;;;;;;;4.70;2.67;;;28.60;54.90;;;;;;4993410;28;20117;-74
2022/09/09 09:57:32;;;;;;;3.42;2.40;;;28.50;51.20;;;;;;4993260;28;20113;-73
2022/09/09 10:00:17;;;;;;;3.55;2.97;;;28.40;51.90;;;;;;4961687;28;20069;-77
2022/09/09 10:02:49;;;;;;;4.18;2.80;;;28.40;50.80;;;;;;4993519;28;20038;-74
2022/09/09 10:05:24;;;;;;;4.10;3.53;;;28.30;51.10;;;;;;4977941;28;20033;-75
2022/09/09 10:08:12;;;;;;;5.68;2.70;;;28.40;52.80;;;;;;4993471;28;20030;-75
2022/09/09 10:10:44;;;;;;;7.18;3.33;;;28.50;57.70;;;;;;4994654;28;20030;-72
2022/09/09 10:13:58;;;;;;;5.20;3.83;;;29.10;59.50;;;;;;4992139;28;20034;-74
2022/09/09 10:16:42;;;;;;;8.88;3.50;;;29.30;58.30;;;;;;4972175;28;20050;-76
2022/09/09 10:19:19;;;;;;;7.03;3.53;;;29.50;52.50;;;;;;4972252;28;20377;-75
2022/09/09 10:22:03;;;;;;;9.00;3.40;;;29.40;50.10;;;;;;4955896;28;20054;-79
2022/09/09 10:24:50;;;;;;;6.70;3.58;;;29.40;50.00;;;;;;4972334;28;20209;-77
2022/09/09 10:27:26;;;;;;;5.18;3.15;;;29.30;55.90;;;;;;4972087;28;20026;-79
2022/09/09 10:30:16;;;;;;;5.82;3.60;;;29.40;56.40;;;;;;4972016;28;20675;-76
2022/09/09 10:32:51;;;;;;;8.05;3.00;;;29.50;56.30;;;;;;4961391;28;20034;-75
2022/09/09 10:36:01;;;;;;;4.65;3.03;;;29.40;56.30;;;;;;4991243;28;20117;-78
2022/09/09 10:38:33;;;;;;;3.90;3.53;;;29.70;56.40;;;;;;4932455;29;20044;-75
2022/09/09 10:41:21;;;;;;;8.05;3.60;;;29.60;56.50;;;;;;4933124;29;20039;-76
2022/09/09 10:44:17;;;;;;;4.43;2.97;;;29.50;56.50;;;;;;4933011;29;20599;-76
2022/09/09 10:46:54;;;;;;;5.65;3.13;;;29.70;57.70;;;;;;4932931;29;20044;-75
2022/09/09 10:49:35;;;;;;;7.60;4.13;;;29.70;57.30;;;;;;4932791;29;20040;-76
2022/09/09 10:52:06;;;;;;;9.32;4.07;;;29.60;57.50;;;;;;4923813;29;20520;-76
2022/09/09 10:54:56;;;;;;;5.10;3.78;;;29.80;57.60;;;;;;4931956;29;20042;-75
2022/09/09 10:57:47;;;;;;;7.50;4.65;;;29.80;57.80;;;;;;4932847;29;20031;-75
2022/09/09 11:00:37;;;;;;;7.20;3.88;;;29.80;57.70;;;;;;4949047;29;20058;-75
2022/09/09 11:03:04;;;;;;;4.53;3.78;;;29.80;52.00;;;;;;4951176;29;20412;-74
2022/09/09 11:05:41;;;;;;;8.25;3.65;;;29.60;50.60;;;;;;4951758;29;20046;-72
2022/09/09 11:08:17;;;;;;;6.13;3.60;;;29.50;50.60;;;;;;4951078;29;20091;-76
2022/09/09 11:11:04;;;;;;;5.47;3.53;;;29.50;50.80;;;;;;4951445;29;20067;-71
2022/09/09 11:13:52;;;;;;;5.35;3.28;;;29.20;50.80;;;;;;5012246;28;20034;-71
2022/09/09 11:16:52;;;;;;;4.85;3.45;;;29.20;50.80;;;;;;5012030;28;20030;-72
2022/09/09 11:19:36;;;;;;;8.43;3.90;;;29.10;50.80;;;;;;4990224;28;20039;-72
2022/09/09 11:22:13;;;;;;;7.45;4.05;;;29.00;51.00;;;;;;4989963;28;20398;-74
2022/09/09 11:24:45;;;;;;;7.88;5.35;;;29.00;50.90;;;;;;5006542;28;20053;-73
2022/09/09 11:27:41;;;;;;;6.45;3.53;;;28.90;50.50;;;;;;4989865;28;20124;-73
2022/09/09 11:30:18;;;;;;;5.95;4.03;;;28.90;50.60;;;;;;4990271;28;20392;-74
2022/09/09 11:33:10;;;;;;;4.45;4.05;;;28.90;50.80;;;;;;4990381;28;20053;-73
2022/09/09 11:35:59;;;;;;;4.93;3.95;;;28.80;50.90;;;;;;4954550;28;20054;-73
2022/09/09 11:38:28;;;;;;;4.93;3.90;;;28.80;50.80;;;;;;5008686;28;20136;-72
2022/09/09 11:40:59;;;;;;;4.40;3.70;;;28.70;51.00;;;;;;5003922;28;20371;-74
2022/09/09 11:43:51;;;;;;;5.28;4.30;;;28.70;51.10;;;;;;4978624;28;20073;-71
2022/09/09 11:46:21;;;;;;;8.02;3.50;;;28.70;51.30;;;;;;4932468;29;20051;-71
2022/09/09 11:49:02;;;;;;;5.88;3.42;;;28.70;51.50;;;;;;4932345;29;20107;-71
2022/09/09 11:51:30;;;;;;;5.35;3.83;;;28.70;51.60;;;;;;4932378;29;20086;-72
2022/09/09 11:53:58;;;;;;;3.92;3.33;;;28.50;51.90;;;;;;4931666;29;20079;-72
2022/09/09 11:56:32;;;;;;;4.60;3.97;;;28.70;51.90;;;;;;4931925;29;20062;-70
2022/09/09 11:59:04;;;;;;;7.22;3.85;;;28.70;51.90;;;;;;4916183;29;20166;-71
2022/09/09 12:01:42;;;;;;;7.55;4.40;;;28.70;52.00;;;;;;4922123;29;20119;-71
2022/09/09 12:04:08;;;;;;;6.32;3.58;;;28.60;52.30;;;;;;4887226;29;20713;-72
2022/09/09 12:06:45;;;;;;;8.40;4.00;;;28.70;52.10;;;;;;4931307;29;20043;-71
2022/09/09 12:09:40;;;;;;;9.63;4.28;;;28.70;52.40;;;;;;4923570;29;20047;-72
2022/09/09 12:12:21;;;;;;;6.35;4.88;;;28.70;52.30;;;;;;4945437;29;20055;-72
2022/09/09 12:15:00;;;;;;;4.57;3.97;;;28.70;52.30;;;;;;4906029;29;20086;-72
2022/09/09 12:17:31;;;;;;;4.38;3.38;;;28.80;52.00;;;;;;4931132;29;20181;-74
2022/09/09 12:20:12;;;;;;;5.07;3.70;;;28.70;52.50;;;;;;4935824;28;20130;-73
2022/09/09 12:23:01;;;;;;;8.90;3.88;;;28.70;52.80;;;;;;4967878;28;20237;-74
2022/09/09 12:25:39;;;;;;;7.18;4.03;;;28.70;52.50;;;;;;4948137;29;20059;-72
2022/09/09 12:28:14;;;;;;;4.68;3.47;;;28.70;52.30;;;;;;4966868;28;20523;-73
2022/09/09 12:30:49;;;;;;;7.38;3.97;;;28.60;52.20;;;;;;4968958;28;20049;-71
2022/09/09 12:33:18;;;;;;;6.15;3.67;;;28.60;51.90;;;;;;4968322;28;20038;-74
2022/09/09 12:35:53;;;;;;;8.65;4.50;;;28.60;52.00;;;;;;4966542;28;20138;-73
2022/09/09 12:38:46;;;;;;;5.80;3.70;;;28.60;51.80;;;;;;4953036;28;20030;-71
2022/09/09 12:41:24;;;;;;;6.28;3.85;;;28.50;51.60;;;;;;4962454;28;20039;-72
2022/09/09 12:43:51;;;;;;;7.90;4.00;;;28.60;51.80;;;;;;4974291;28;20042;-74
2022/09/09 12:46:31;;;;;;;9.90;4.53;;;28.50;51.60;;;;;;4960962;28;20427;-72
2022/09/09 12:48:58;;;;;;;5.15;4.00;;;28.40;51.60;;;;;;4957335;28;20027;-71
2022/09/09 12:51:31;;;;;;;4.82;3.75;;;28.50;51.60;;;;;;4968794;28;20062;-70
2022/09/09 12:53:58;;;;;;;7.55;4.13;;;28.50;51.60;;;;;;4968584;28;20034;-69
2022/09/09 12:56:30;;;;;;;4.57;3.53;;;28.40;53.00;;;;;;4968982;28;20047;-69
2022/09/09 12:58:58;;;;;;;5.40;3.57;;;28.40;52.60;;;;;;4968498;28;20055;-70
2022/09/09 13:01:30;;;;;;;7.95;3.72;;;28.40;52.60;;;;;;4967163;28;20288;-69
2022/09/09 13:03:57;;;;;;;4.47;3.20;;;28.40;52.30;;;;;;4969678;28;20046;-70
2022/09/09 13:06:26;;;;;;;4.72;3.63;;;28.50;52.10;;;;;;4969903;28;20467;-68
2022/09/09 13:08:54;;;;;;;6.93;3.95;;;28.40;51.90;;;;;;4968336;28;20082;-69
2022/09/09 13:11:28;;;;;;;6.20;3.80;;;28.40;51.90;;;;;;4969537;28;20058;-69
2022/09/09 13:13:56;;;;;;;8.40;3.65;;;28.40;51.90;;;;;;4953758;28;20050;-68
2022/09/09 13:16:31;;;;;;;5.35;4.05;;;28.40;51.90;;;;;;4969834;28;20053;-68
2022/09/09 13:19:15;;;;;;;8.95;3.90;;;28.30;51.90;;;;;;4963552;28;20093;-69
2022/09/09 13:21:42;;;;;;;8.48;3.67;;;28.40;51.80;;;;;;4969812;28;20058;-69
2022/09/09 13:24:30;;;;;;;3.88;3.30;;;28.40;51.70;;;;;;4969709;28;20492;-68